createdAt,value
2022-11-14T00:01:23.446Z,5.73
2022-11-14T00:03:52.200Z,5.27
2022-11-14T00:06:21.909Z,5.23
2022-11-14T00:08:50.150Z,4.67
2022-11-14T00:11:19.688Z,6.40
2022-11-14T00:13:47.904Z,5.30
2022-11-14T00:16:16.097Z,5.20
2022-11-14T00:18:44.328Z,5.73
2022-11-14T00:21:12.565Z,4.93
2022-11-14T00:23:40.747Z,4.83
2022-11-14T00:26:09.037Z,5.60
2022-11-14T00:28:38.615Z,5.63
2022-11-14T00:31:07.179Z,4.60
2022-11-14T00:33:35.428Z,4.30
2022-11-14T00:36:03.814Z,4.53
2022-11-14T00:38:32.288Z,4.97
2022-11-14T00:41:01.761Z,4.87
2022-11-14T00:43:30.025Z,4.80
2022-11-14T00:46:00.851Z,4.00
2022-11-14T00:48:30.482Z,4.20
2022-11-14T00:50:59.022Z,4.70
2022-11-14T00:53:28.340Z,4.73
2022-11-14T00:55:56.584Z,4.37
2022-11-14T00:58:24.965Z,4.57
2022-11-14T01:00:53.460Z,4.00
2022-11-14T01:03:23.147Z,4.33
2022-11-14T01:05:53.527Z,4.93
2022-11-14T01:08:21.859Z,4.37
2022-11-14T01:10:51.306Z,4.40
2022-11-14T01:13:19.972Z,4.20
2022-11-14T01:15:49.551Z,4.97
2022-11-14T01:18:19.249Z,3.60
2022-11-14T01:20:49.844Z,4.30
2022-11-14T01:23:18.287Z,4.77
2022-11-14T01:25:46.740Z,4.50
2022-11-14T01:28:16.300Z,3.77
2022-11-14T01:30:44.966Z,3.90
2022-11-14T01:33:13.204Z,4.93
2022-11-14T01:35:42.501Z,4.87
2022-11-14T01:38:14.646Z,6.30
2022-11-14T01:40:44.156Z,5.70
2022-11-14T01:43:32.101Z,5.00
2022-11-14T01:46:01.882Z,5.20
2022-11-14T01:48:33.617Z,5.67
2022-11-14T01:51:05.248Z,4.80
2022-11-14T01:53:34.880Z,4.53
2022-11-14T01:56:05.343Z,4.40
2022-11-14T01:58:33.944Z,4.57
2022-11-14T02:01:02.228Z,3.90
2022-11-14T02:03:30.736Z,5.33
2022-11-14T02:05:59.252Z,5.00
2022-11-14T02:08:28.126Z,4.90
2022-11-14T02:10:59.059Z,4.50
2022-11-14T02:13:27.254Z,5.67
2022-11-14T02:15:55.798Z,4.30
2022-11-14T02:18:24.016Z,4.20
2022-11-14T02:20:53.582Z,4.97
2022-11-14T02:23:32.035Z,4.23
2022-11-14T02:26:00.285Z,4.17
2022-11-14T02:28:30.101Z,4.17
2022-11-14T02:30:58.519Z,3.40
2022-11-14T02:33:27.861Z,4.10
2022-11-14T02:35:57.526Z,4.00
2022-11-14T02:38:25.793Z,3.30
2022-11-14T02:40:55.251Z,3.40
2022-11-14T02:43:23.447Z,3.50
2022-11-14T02:45:51.669Z,3.87
2022-11-14T02:48:19.915Z,4.23
2022-11-14T02:50:50.047Z,3.80
2022-11-14T02:53:19.918Z,4.00
2022-11-14T02:55:48.245Z,3.60
2022-11-14T02:58:16.454Z,3.90
2022-11-14T03:01:13.521Z,3.70
2022-11-14T03:03:35.136Z,3.83
2022-11-14T03:06:03.801Z,3.73
2022-11-14T03:08:34.535Z,3.50
2022-11-14T03:11:06.983Z,4.40
2022-11-14T03:13:35.374Z,3.80
2022-11-14T03:16:07.419Z,3.77
2022-11-14T03:18:35.635Z,3.80
2022-11-14T03:21:08.724Z,3.63
2022-11-14T03:23:38.566Z,4.43
2022-11-14T03:26:07.977Z,4.53
2022-11-14T03:28:36.641Z,4.23
2022-11-14T03:31:05.965Z,4.10
2022-11-14T03:33:34.252Z,3.90
2022-11-14T03:36:02.734Z,3.20
2022-11-14T03:38:32.503Z,3.30
2022-11-14T03:41:02.730Z,3.40
2022-11-14T03:43:32.842Z,3.83
2022-11-14T03:46:01.424Z,4.07
2022-11-14T03:48:30.370Z,3.97
2022-11-14T03:50:58.966Z,4.40
2022-11-14T03:53:28.243Z,3.93
2022-11-14T03:55:56.913Z,4.13
2022-11-14T03:58:26.945Z,4.30
2022-11-14T04:00:56.385Z,4.33
2022-11-14T04:03:24.623Z,4.60
2022-11-14T04:05:52.873Z,3.70
2022-11-14T04:08:22.134Z,3.73
2022-11-14T04:10:51.487Z,4.20
2022-11-14T04:13:19.831Z,4.83
2022-11-14T04:15:55.708Z,4.20
2022-11-14T04:18:24.129Z,3.73
2022-11-14T04:20:52.396Z,3.57
2022-11-14T04:23:20.942Z,3.87
2022-11-14T04:25:49.536Z,3.93
2022-11-14T04:28:17.731Z,4.10
2022-11-14T04:30:47.264Z,3.90
2022-11-14T04:33:16.818Z,4.40
2022-11-14T04:35:45.033Z,3.83
2022-11-14T04:38:14.342Z,3.73
2022-11-14T04:40:42.570Z,4.00
2022-11-14T04:43:10.776Z,4.10
2022-11-14T04:45:39.058Z,4.07
2022-11-14T04:48:07.583Z,3.77
2022-11-14T04:50:37.288Z,4.80
2022-11-14T04:53:05.663Z,4.70
2022-11-14T04:55:33.932Z,4.10
2022-11-14T04:58:02.547Z,4.60
2022-11-14T05:00:30.733Z,3.93
2022-11-14T05:03:00.320Z,4.00
2022-11-14T05:05:28.547Z,4.03
2022-11-14T05:07:58.120Z,4.37
2022-11-14T05:10:26.329Z,4.40
2022-11-14T05:12:55.682Z,4.30
2022-11-14T05:15:23.965Z,4.30
2022-11-14T05:17:52.256Z,4.53
2022-11-14T05:20:20.512Z,3.73
2022-11-14T05:22:48.717Z,4.50
2022-11-14T05:25:18.365Z,4.40
2022-11-14T05:27:46.648Z,4.90
2022-11-14T05:30:15.324Z,5.07
2022-11-14T05:32:44.637Z,4.63
2022-11-14T05:35:12.858Z,3.80
2022-11-14T05:37:41.040Z,4.90
2022-11-14T05:40:11.729Z,6.30
2022-11-14T05:42:41.359Z,5.10
2022-11-14T05:45:10.192Z,4.80
2022-11-14T05:47:38.450Z,4.60
2022-11-14T05:50:08.576Z,4.50
2022-11-14T05:52:37.790Z,4.23
2022-11-14T05:55:06.257Z,5.20
2022-11-14T05:57:35.810Z,4.93
2022-11-14T06:00:07.120Z,5.30
2022-11-14T06:02:35.368Z,5.70
2022-11-14T06:05:03.619Z,4.83
2022-11-14T06:07:31.980Z,5.67
2022-11-14T06:10:00.513Z,6.07
2022-11-14T06:12:28.704Z,4.70
2022-11-14T06:14:56.902Z,4.90
2022-11-14T06:17:26.532Z,5.60
2022-11-14T06:19:54.978Z,6.00
2022-11-14T06:22:23.220Z,5.10
2022-11-14T06:24:51.457Z,5.70
2022-11-14T06:27:19.827Z,5.70
2022-11-14T06:29:48.354Z,4.27
2022-11-14T06:32:16.777Z,5.27
2022-11-14T06:34:46.494Z,5.47
2022-11-14T06:37:14.709Z,5.80
2022-11-14T06:39:42.917Z,4.47
2022-11-14T06:42:11.110Z,5.47
2022-11-14T06:44:39.375Z,5.63
2022-11-14T06:47:07.543Z,5.70
2022-11-14T06:49:40.501Z,5.53
2022-11-14T06:52:10.590Z,6.47
2022-11-14T06:54:38.781Z,8.37
2022-11-14T06:57:07.785Z,8.07
2022-11-14T06:59:35.959Z,7.77
2022-11-14T07:02:04.202Z,6.83
2022-11-14T07:04:32.436Z,7.27
2022-11-14T07:07:01.131Z,7.50
2022-11-14T07:09:30.731Z,8.10
2022-11-14T07:12:00.182Z,7.60
2022-11-14T07:14:29.044Z,4.73
2022-11-14T07:16:57.325Z,8.30
2022-11-14T07:19:25.548Z,7.90
2022-11-14T07:21:53.785Z,7.57
2022-11-14T07:24:21.992Z,4.67
2022-11-14T07:26:51.876Z,5.77
2022-11-14T07:29:22.092Z,8.53
2022-11-14T07:31:50.306Z,7.80
2022-11-14T07:34:18.977Z,7.77
2022-11-14T07:36:48.222Z,9.03
2022-11-14T07:39:16.516Z,8.03
2022-11-14T07:41:47.801Z,8.20
2022-11-14T07:44:20.802Z,7.80
2022-11-14T07:46:50.177Z,8.83
2022-11-14T07:49:18.619Z,8.27
2022-11-14T07:51:47.090Z,7.77
2022-11-14T07:54:15.736Z,4.43
2022-11-14T07:56:44.290Z,8.40
2022-11-14T07:59:14.314Z,10.40
2022-11-14T08:01:43.994Z,9.57
2022-11-14T08:04:14.730Z,11.30
2022-11-14T08:06:43.352Z,11.83
2022-11-14T08:09:11.991Z,12.63
2022-11-14T08:11:51.166Z,13.50
2022-11-14T08:14:19.501Z,13.40
2022-11-14T08:16:50.345Z,14.03
2022-11-14T08:19:23.807Z,14.77
2022-11-14T08:21:52.110Z,15.77
2022-11-14T08:24:20.640Z,15.60
2022-11-14T08:26:49.042Z,16.53
2022-11-14T08:29:19.590Z,16.43
2022-11-14T08:31:49.081Z,17.77
2022-11-14T08:34:19.108Z,19.00
2022-11-14T08:36:48.954Z,17.93
2022-11-14T08:39:17.478Z,18.07
2022-11-14T08:41:45.758Z,16.30
2022-11-14T08:44:14.134Z,18.13
2022-11-14T08:46:46.050Z,13.33
2022-11-14T08:49:14.338Z,15.90
2022-11-14T08:51:46.452Z,19.13
2022-11-14T08:54:17.107Z,19.40
2022-11-14T08:56:45.429Z,20.57
2022-11-14T08:59:13.881Z,20.60
2022-11-14T09:01:42.341Z,20.43
2022-11-14T09:04:10.677Z,20.93
2022-11-14T09:06:41.300Z,22.93
2022-11-14T09:09:10.988Z,19.40
2022-11-14T09:11:39.295Z,20.40
2022-11-14T09:14:07.864Z,22.87
2022-11-14T09:16:36.532Z,22.00
2022-11-14T09:19:04.824Z,23.50
2022-11-14T09:21:33.094Z,26.00
2022-11-14T09:24:02.029Z,24.70
2022-11-14T09:26:31.815Z,24.67
2022-11-14T09:29:02.193Z,23.80
2022-11-14T09:31:30.883Z,24.70
2022-11-14T09:33:59.183Z,22.53
2022-11-14T09:36:27.604Z,27.77
2022-11-14T09:38:55.916Z,27.20
2022-11-14T09:41:25.468Z,28.10
2022-11-14T09:44:11.073Z,31.27
2022-11-14T09:46:45.918Z,23.10
2022-11-14T09:49:22.428Z,27.80
2022-11-14T09:51:52.110Z,29.20
2022-11-14T09:54:22.218Z,24.40
2022-11-14T09:56:50.556Z,29.47
2022-11-14T09:59:19.217Z,28.00
2022-11-14T10:01:53.281Z,25.33
2022-11-14T10:04:24.990Z,23.27
2022-11-14T10:06:57.390Z,23.13
2022-11-14T10:09:36.838Z,22.43
2022-11-14T10:12:06.995Z,18.70
2022-11-14T10:14:45.371Z,18.23
2022-11-14T10:17:23.740Z,15.37
2022-11-14T10:19:55.876Z,13.77
2022-11-14T10:22:29.464Z,14.70
2022-11-14T10:25:05.513Z,13.43
2022-11-14T10:27:35.636Z,12.50
2022-11-14T10:30:10.539Z,13.30
2022-11-14T10:32:54.750Z,12.13
2022-11-14T10:35:24.999Z,12.07
2022-11-14T10:37:58.172Z,12.50
2022-11-14T10:40:27.835Z,11.37
2022-11-14T10:42:58.754Z,11.50
2022-11-14T10:45:28.899Z,8.77
2022-11-14T10:48:01.574Z,7.80
2022-11-14T10:50:33.101Z,6.83
2022-11-14T10:53:03.766Z,5.40
2022-11-14T10:58:20.752Z,5.20
2022-11-14T11:00:51.430Z,5.30
2022-11-14T11:03:21.229Z,4.73
2022-11-14T11:05:50.744Z,5.40
2022-11-14T11:08:43.599Z,4.07
2022-11-14T11:11:34.825Z,3.80
2022-11-14T11:14:04.963Z,3.20
2022-11-14T11:16:33.598Z,3.80
2022-11-14T11:19:24.983Z,3.33
2022-11-14T11:21:54.554Z,3.60
2022-11-14T11:24:33.070Z,3.80
2022-11-14T11:27:15.236Z,3.30
2022-11-14T11:29:43.638Z,3.60
2022-11-14T11:32:13.224Z,4.20
2022-11-14T11:34:43.123Z,3.03
2022-11-14T11:37:18.435Z,4.07
2022-11-14T11:39:49.618Z,3.53
2022-11-14T11:42:21.599Z,3.33
2022-11-14T11:44:52.682Z,3.57
2022-11-14T11:47:22.651Z,2.93
2022-11-14T11:49:54.889Z,2.70
2022-11-14T11:52:29.751Z,3.30
2022-11-14T11:55:02.815Z,3.40
2022-11-14T11:57:33.067Z,3.00
2022-11-14T12:00:05.740Z,2.80
2022-11-14T12:02:34.512Z,3.73
2022-11-14T12:05:04.433Z,2.83
2022-11-14T12:07:41.397Z,3.40
2022-11-14T12:10:18.688Z,2.83
2022-11-14T12:13:02.971Z,3.07
2022-11-14T12:15:34.766Z,3.73
2022-11-14T12:18:13.095Z,3.30
2022-11-14T12:20:52.255Z,3.10
2022-11-14T12:23:31.352Z,3.20
2022-11-14T12:26:07.436Z,4.00
2022-11-14T12:28:47.606Z,3.57
2022-11-14T12:31:18.368Z,3.30
2022-11-14T12:33:49.221Z,3.50
2022-11-14T12:36:19.935Z,3.77
2022-11-14T12:38:52.877Z,3.60
2022-11-14T12:41:29.625Z,3.70
2022-11-14T12:44:13.138Z,3.77
2022-11-14T12:47:13.429Z,3.23
2022-11-14T12:49:57.160Z,3.97
2022-11-14T12:52:50.891Z,3.47
2022-11-14T12:55:38.041Z,3.67
2022-11-14T12:58:10.622Z,3.90
2022-11-14T13:00:41.185Z,3.80
2022-11-14T13:03:21.597Z,3.77
2022-11-14T13:05:54.211Z,3.27
2022-11-14T13:08:43.084Z,3.13
2022-11-14T13:11:50.288Z,3.20
2022-11-14T13:14:37.223Z,3.40
2022-11-14T13:17:32.268Z,3.60
2022-11-14T13:20:19.724Z,2.97
2022-11-14T13:22:49.200Z,4.47
2022-11-14T13:25:22.371Z,3.77
2022-11-14T13:28:07.098Z,3.80
2022-11-14T13:30:50.644Z,3.77
2022-11-14T13:33:35.090Z,4.40
2022-11-14T13:36:05.816Z,4.80
2022-11-14T13:38:56.645Z,4.37
2022-11-14T13:41:47.620Z,4.03
2022-11-14T13:47:23.678Z,4.07
2022-11-14T13:49:58.664Z,4.50
2022-11-14T13:52:28.878Z,6.80
2022-11-14T13:54:58.562Z,7.30
2022-11-14T13:57:30.570Z,4.90
2022-11-14T14:00:19.663Z,4.30
2022-11-14T14:02:58.074Z,4.97
2022-11-14T14:05:38.071Z,4.70
2022-11-14T14:08:20.597Z,3.90
2022-11-14T14:10:53.754Z,4.27
2022-11-14T14:13:32.597Z,4.20
2022-11-14T14:16:05.985Z,4.73
2022-11-14T14:18:51.269Z,4.40
2022-11-14T14:21:28.632Z,4.83
2022-11-14T14:24:01.491Z,4.83
2022-11-14T14:26:35.262Z,4.60
2022-11-14T14:29:08.518Z,4.60
2022-11-14T14:31:39.715Z,4.50
2022-11-14T14:34:22.499Z,3.30
2022-11-14T14:36:53.133Z,4.63
2022-11-14T14:39:22.349Z,4.03
2022-11-14T14:41:51.130Z,3.20
2022-11-14T14:44:21.620Z,2.90
2022-11-14T14:46:50.326Z,3.90
2022-11-14T14:49:20.468Z,2.80
2022-11-14T14:51:48.818Z,3.63
2022-11-14T14:54:25.769Z,3.67
2022-11-14T14:57:00.173Z,3.80
2022-11-14T14:59:29.233Z,3.20
2022-11-14T15:01:58.109Z,3.37
2022-11-14T15:04:27.828Z,3.47
2022-11-14T15:06:57.586Z,3.27
2022-11-14T15:09:29.806Z,3.60
2022-11-14T15:12:00.620Z,3.20
2022-11-14T15:14:30.669Z,3.43
2022-11-14T15:16:59.825Z,3.27
2022-11-14T15:19:31.963Z,3.23
2022-11-14T15:22:04.431Z,3.60
2022-11-14T15:24:34.367Z,3.03
2022-11-14T15:27:06.086Z,3.60
2022-11-14T15:29:35.496Z,3.43
2022-11-14T15:32:04.349Z,3.97
2022-11-14T15:34:33.762Z,4.10
2022-11-14T15:37:22.813Z,4.87
2022-11-14T15:40:16.654Z,3.47
2022-11-14T15:42:45.045Z,4.50
2022-11-14T15:45:22.922Z,5.50
2022-11-14T15:47:59.218Z,4.70
2022-11-14T15:50:30.261Z,4.10
2022-11-14T15:53:03.820Z,4.97
2022-11-14T15:55:33.581Z,4.80
2022-11-14T15:58:27.018Z,4.70
2022-11-14T16:00:53.529Z,5.00
2022-11-14T16:03:23.756Z,5.47
2022-11-14T16:05:53.390Z,4.83
2022-11-14T16:08:24.359Z,4.43
2022-11-14T16:10:55.091Z,4.13
2022-11-14T16:13:23.468Z,4.90
2022-11-14T16:15:51.791Z,5.57
2022-11-14T16:18:20.396Z,5.63
2022-11-14T16:20:48.755Z,6.63
2022-11-14T16:23:19.075Z,6.17
2022-11-14T16:25:48.981Z,5.77
2022-11-14T16:28:18.706Z,6.37
2022-11-14T16:30:48.550Z,6.50
2022-11-14T16:33:17.070Z,6.50
2022-11-14T16:35:45.777Z,6.30
2022-11-14T16:38:14.672Z,6.90
2022-11-14T16:40:45.283Z,6.63
2022-11-14T16:43:15.475Z,6.47
2022-11-14T16:45:45.134Z,3.87
2022-11-14T16:48:14.490Z,6.83
2022-11-14T16:50:42.809Z,6.70
2022-11-14T16:53:11.088Z,5.47
2022-11-14T16:55:39.370Z,7.07
2022-11-14T16:58:07.673Z,6.87
2022-11-14T17:00:36.077Z,6.17
2022-11-14T17:03:06.823Z,5.17
2022-11-14T17:05:35.449Z,8.03
2022-11-14T17:08:05.784Z,8.43
2022-11-14T17:10:35.724Z,8.00
2022-11-14T17:13:03.904Z,8.00
2022-11-14T17:15:33.500Z,6.30
2022-11-14T17:18:01.769Z,6.50
2022-11-14T17:20:33.847Z,7.87
2022-11-14T17:23:02.067Z,6.73
2022-11-14T17:25:31.641Z,8.20
2022-11-14T17:27:59.870Z,7.53
2022-11-14T17:30:28.053Z,7.00
2022-11-14T17:32:56.748Z,6.90
2022-11-14T17:35:25.035Z,8.40
2022-11-14T17:38:00.090Z,7.63
2022-11-14T17:40:28.900Z,4.77
2022-11-14T17:42:57.266Z,8.20
2022-11-14T17:45:26.711Z,7.90
2022-11-14T17:47:55.410Z,8.97
2022-11-14T17:50:23.696Z,9.43
2022-11-14T17:52:51.887Z,10.13
2022-11-14T17:55:21.516Z,8.70
2022-11-14T17:57:50.079Z,4.60
2022-11-14T18:00:18.821Z,9.97
2022-11-14T18:02:47.195Z,10.30
2022-11-14T18:05:15.507Z,11.27
2022-11-14T18:07:44.823Z,9.77
2022-11-14T18:10:13.093Z,9.20
2022-11-14T18:12:42.644Z,5.43
2022-11-14T18:15:11.400Z,11.97
2022-11-14T18:17:40.945Z,11.30
2022-11-14T18:20:10.714Z,8.57
2022-11-14T18:22:39.028Z,12.57
2022-11-14T18:25:08.062Z,11.40
2022-11-14T18:27:36.846Z,9.80
2022-11-14T18:30:20.064Z,12.30
2022-11-14T18:32:55.251Z,11.00
2022-11-14T18:35:23.452Z,10.87
2022-11-14T18:37:51.727Z,4.80
2022-11-14T18:40:21.597Z,9.53
2022-11-14T18:42:50.036Z,10.43
2022-11-14T18:45:19.634Z,12.27
2022-11-14T18:47:47.843Z,10.17
2022-11-14T18:50:16.144Z,10.77
2022-11-14T18:52:44.407Z,11.50
2022-11-14T18:55:13.030Z,12.40
2022-11-14T18:57:41.365Z,11.60
2022-11-14T19:00:10.462Z,10.23
2022-11-14T19:02:52.529Z,12.33
2022-11-14T19:05:26.415Z,11.77
2022-11-14T19:07:54.741Z,11.73
2022-11-14T19:10:24.917Z,12.13
2022-11-14T19:12:56.323Z,10.90
2022-11-14T19:15:24.882Z,11.20
2022-11-14T19:17:54.504Z,8.30
2022-11-14T19:20:28.038Z,13.60
2022-11-14T19:22:58.277Z,11.63
2022-11-14T19:25:31.845Z,12.00
2022-11-14T19:28:05.833Z,10.60
2022-11-14T19:30:36.572Z,10.20
2022-11-14T19:33:07.605Z,10.27
2022-11-14T19:35:41.090Z,10.47
2022-11-14T19:38:09.684Z,10.60
2022-11-14T19:40:40.218Z,11.87
2022-11-14T19:43:09.294Z,12.93
2022-11-14T19:45:37.912Z,11.17
2022-11-14T19:48:08.492Z,12.20
2022-11-14T19:50:36.760Z,11.37
2022-11-14T19:53:05.187Z,11.70
2022-11-14T19:55:33.749Z,12.00
2022-11-14T19:58:02.154Z,12.30
2022-11-14T20:00:31.815Z,10.87
2022-11-14T20:03:00.043Z,10.90
2022-11-14T20:05:29.802Z,11.20
2022-11-14T20:07:58.252Z,9.73
2022-11-14T20:10:26.497Z,9.63
2022-11-14T20:12:54.912Z,10.53
2022-11-14T20:15:23.221Z,10.20
2022-11-14T20:17:51.550Z,11.30
2022-11-14T20:20:19.955Z,10.83
2022-11-14T20:22:49.756Z,10.30
2022-11-14T20:25:18.217Z,11.63
2022-11-14T20:27:49.097Z,13.10
2022-11-14T20:30:17.611Z,11.53
2022-11-14T20:32:46.216Z,13.20
2022-11-14T20:35:14.527Z,14.27
2022-11-14T20:37:47.591Z,13.10
2022-11-14T20:40:17.758Z,14.87
2022-11-14T20:42:49.284Z,13.60
2022-11-14T20:45:17.940Z,12.70
2022-11-14T20:47:46.240Z,13.87
2022-11-14T20:50:15.340Z,13.47
2022-11-14T20:52:46.985Z,13.13
2022-11-14T20:55:16.952Z,14.50
2022-11-14T20:57:45.492Z,12.70
2022-11-14T21:00:14.217Z,13.07
2022-11-14T21:02:42.698Z,14.23
2022-11-14T21:05:12.091Z,12.93
2022-11-14T21:07:40.363Z,14.80
2022-11-14T21:10:27.999Z,14.50
2022-11-14T21:13:15.287Z,14.03
2022-11-14T21:15:43.562Z,14.20
2022-11-14T21:18:11.939Z,16.67
2022-11-14T21:20:40.346Z,16.77
2022-11-14T21:23:08.640Z,15.60
2022-11-14T21:25:36.964Z,15.43
2022-11-14T21:28:06.998Z,15.20
2022-11-14T21:30:35.634Z,15.27
2022-11-14T21:33:04.054Z,17.40
2022-11-14T21:35:33.425Z,15.87
2022-11-14T21:38:02.899Z,16.90
2022-11-14T21:40:31.122Z,17.40
2022-11-14T21:42:59.389Z,18.73
2022-11-14T21:45:29.294Z,19.40
2022-11-14T21:47:59.631Z,16.93
2022-11-14T21:50:27.959Z,19.20
2022-11-14T21:52:56.271Z,19.13
2022-11-14T21:55:24.588Z,20.67
2022-11-14T21:57:55.384Z,18.50
2022-11-14T22:00:23.692Z,21.60
2022-11-14T22:03:14.970Z,20.80
2022-11-14T22:05:45.987Z,19.17
2022-11-14T22:08:14.255Z,19.70
2022-11-14T22:10:46.854Z,21.20
2022-11-14T22:13:15.110Z,21.57
2022-11-14T22:15:43.480Z,20.33
2022-11-14T22:18:13.247Z,21.53
2022-11-14T22:20:41.593Z,26.40
2022-11-14T22:23:09.847Z,21.23
2022-11-14T22:25:38.053Z,20.93
2022-11-14T22:28:06.555Z,23.10
2022-11-14T22:30:34.862Z,22.93
2022-11-14T22:33:03.096Z,20.90
2022-11-14T22:35:36.205Z,19.77
2022-11-14T22:38:04.652Z,21.93
2022-11-14T22:40:33.286Z,22.00
2022-11-14T22:43:01.920Z,20.60
2022-11-14T22:45:30.156Z,21.70
2022-11-14T22:48:00.017Z,19.63
2022-11-14T22:50:28.268Z,21.60
2022-11-14T22:52:57.916Z,25.37
2022-11-14T22:55:26.151Z,22.00
2022-11-14T22:57:54.390Z,22.90
2022-11-14T23:00:22.761Z,22.77
2022-11-14T23:02:55.103Z,22.27
2022-11-14T23:05:23.536Z,22.00
2022-11-14T23:07:51.834Z,20.00
2022-11-14T23:10:21.815Z,22.83
2022-11-14T23:12:50.113Z,20.13
2022-11-14T23:15:18.346Z,22.03
2022-11-14T23:17:46.668Z,21.17
2022-11-14T23:20:16.594Z,19.37
2022-11-14T23:22:45.192Z,22.37
2022-11-14T23:25:13.564Z,21.37
2022-11-14T23:27:43.153Z,24.77
2022-11-14T23:30:12.145Z,23.33
2022-11-14T23:32:40.415Z,21.17
2022-11-14T23:35:09.268Z,23.17
2022-11-14T23:37:37.642Z,21.83
2022-11-14T23:40:06.225Z,22.80
2022-11-14T23:42:34.468Z,22.80
2022-11-14T23:45:04.084Z,22.00
2022-11-14T23:47:32.307Z,24.07
2022-11-14T23:50:00.566Z,22.00
2022-11-14T23:52:28.776Z,22.77
2022-11-14T23:54:56.993Z,23.50
2022-11-14T23:57:25.267Z,23.23
2022-11-14T23:59:53.545Z,21.80
